Time;durP1;ratioP1;P1;durP2;ratioP2;P2;SDS_P1;SDS_P2;PMS_P1;PMS_P2;Temp;Humidity;BMP_temperature;BMP_pressure;BME280_temperature;BME280_humidity;BME280_pressure;Samples;Min_cycle;Max_cycle;Signal;HPM_P1;HPM_P2
2022/05/22 00:01:00;;;;;;;23.23;9.38;;;;;;;-145.76;100.00;65039.31;4943805;28;20034;-68
2022/05/22 00:03:26;;;;;;;25.40;10.73;;;;;;;-145.76;100.00;65039.31;4928170;28;20045;-68
2022/05/22 00:05:51;;;;;;;32.28;12.25;;;;;;;-145.76;100.00;65039.31;4942713;28;20714;-68
2022/05/22 00:08:17;;;;;;;24.98;11.60;;;;;;;-145.76;100.00;65039.31;4939733;28;20049;-69
2022/05/22 00:10:42;;;;;;;25.65;13.20;;;;;;;-145.76;100.00;65039.31;4943171;28;20037;-68
2022/05/22 00:13:08;;;;;;;22.27;12.25;;;;;;;-145.76;100.00;65039.31;4911430;28;20196;-68
2022/05/22 00:15:33;;;;;;;24.13;12.38;;;;;;;-145.76;100.00;65039.31;4938664;28;20683;-68
2022/05/22 00:17:58;;;;;;;22.02;10.80;;;;;;;-145.76;100.00;65039.31;4938971;28;20069;-69
2022/05/22 00:20:24;;;;;;;23.70;11.05;;;;;;;-145.76;100.00;65039.31;4940798;28;20033;-68
2022/05/22 00:22:49;;;;;;;19.38;10.95;;;;;;;-145.76;100.00;65039.31;4942533;28;20053;-68
2022/05/22 00:25:15;;;;;;;29.25;12.50;;;;;;;-145.76;100.00;65039.31;4928943;28;20762;-68
2022/05/22 00:27:41;;;;;;;25.02;10.18;;;;;;;-145.76;100.00;65039.31;4941169;28;20198;-68
2022/05/22 00:30:08;;;;;;;19.90;10.00;;;;;;;-145.76;100.00;65039.31;4938531;28;20034;-68
2022/05/22 00:32:34;;;;;;;20.45;10.00;;;;;;;-145.76;100.00;65039.31;4938874;28;20038;-69
2022/05/22 00:34:59;;;;;;;25.42;10.25;;;;;;;-145.76;100.00;65039.31;4939178;28;20386;-68
2022/05/22 00:37:25;;;;;;;20.48;10.15;;;;;;;-145.76;100.00;65039.31;4938157;28;20037;-70
2022/05/22 00:39:50;;;;;;;19.13;9.60;;;;;;;-145.76;100.00;65039.31;4943276;28;20040;-68
2022/05/22 00:42:21;;;;;;;22.15;10.35;;;;;;;-145.76;100.00;65039.31;4939612;28;20701;-68
2022/05/22 00:44:47;;;;;;;23.75;10.88;;;;;;;-145.76;100.00;65039.31;4936262;28;20481;-69
2022/05/22 00:47:14;;;;;;;25.38;11.25;;;;;;;-145.76;100.00;65039.31;4925010;28;20066;-68
2022/05/22 00:49:43;;;;;;;36.10;15.63;;;;;;;-145.76;100.00;65039.31;4941820;28;20034;-68
2022/05/22 00:52:13;;;;;;;28.52;13.48;;;;;;;-145.76;100.00;65039.31;4937539;28;20048;-68
2022/05/22 00:55:05;;;;;;;20.13;11.43;;;;;;;-145.76;100.00;65039.31;4938349;28;20038;-68
2022/05/22 00:57:35;;;;;;;21.98;10.38;;;;;;;-145.76;100.00;65039.31;4923964;28;20045;-68
2022/05/22 01:00:20;;;;;;;28.65;11.10;;;;;;;-145.76;100.00;65039.31;4923423;28;20611;-68
2022/05/22 01:05:32;;;;;;;23.10;11.73;;;;;;;-145.76;100.00;65039.31;4938783;28;20044;-68
2022/05/22 01:07:59;;;;;;;26.75;11.68;;;;;;;-145.76;100.00;65039.31;4933087;28;20053;-68
2022/05/22 01:10:31;;;;;;;28.08;13.50;;;;;;;-145.76;100.00;65039.31;4957777;28;20060;-69
2022/05/22 01:12:57;;;;;;;27.10;13.45;;;;;;;-145.76;100.00;65039.31;4942768;28;20117;-69
2022/05/22 01:15:22;;;;;;;27.15;14.20;;;;;;;-145.76;100.00;65039.31;4906883;28;20042;-68
2022/05/22 01:17:48;;;;;;;31.67;12.32;;;;;;;-145.76;100.00;65039.31;4940817;28;20030;-68
2022/05/22 01:20:16;;;;;;;26.48;13.40;;;;;;;-145.76;100.00;65039.31;4937830;28;20111;-70
2022/05/22 01:22:41;;;;;;;34.22;13.75;;;;;;;-145.76;100.00;65039.31;4942071;28;20034;-70
2022/05/22 01:25:07;;;;;;;27.90;13.30;;;;;;;-145.76;100.00;65039.31;4933428;28;20088;-70
2022/05/22 01:27:33;;;;;;;28.08;13.00;;;;;;;-145.76;100.00;65039.31;4922844;28;20409;-70
2022/05/22 01:30:10;;;;;;;22.15;12.65;;;;;;;-145.76;100.00;65039.31;4938845;28;20034;-70
2022/05/22 01:32:36;;;;;;;26.73;13.65;;;;;;;-145.76;100.00;65039.31;4938143;28;20517;-70
2022/05/22 01:35:02;;;;;;;22.77;12.40;;;;;;;-145.76;100.00;65039.31;4923252;28;20102;-71
2022/05/22 01:37:28;;;;;;;26.80;13.60;;;;;;;-145.76;100.00;65039.31;4928291;28;20049;-70
2022/05/22 01:39:53;;;;;;;32.65;16.23;;;;;;;-145.76;100.00;65039.31;4941974;28;20088;-71
2022/05/22 01:42:19;;;;;;;34.85;17.10;;;;;;;-145.76;100.00;65039.31;4938773;28;22444;-70
2022/05/22 01:44:45;;;;;;;41.97;17.70;;;;;;;-145.76;100.00;65039.31;4941969;28;20653;-71
2022/05/22 01:47:10;;;;;;;39.95;16.92;;;;;;;-145.76;100.00;65039.31;4927285;28;22823;-70
2022/05/22 01:49:36;;;;;;;39.25;16.88;;;;;;;-145.76;100.00;65039.31;4942450;28;20182;-71
2022/05/22 01:52:01;;;;;;;33.10;15.52;;;;;;;-145.76;100.00;65039.31;4937939;28;22067;-70
2022/05/22 01:54:27;;;;;;;36.10;14.50;;;;;;;-145.76;100.00;65039.31;4940028;28;20046;-70
2022/05/22 01:56:52;;;;;;;26.80;13.02;;;;;;;-145.76;100.00;65039.31;4946657;28;20057;-71
2022/05/22 01:59:18;;;;;;;25.15;13.60;;;;;;;-145.76;100.00;65039.31;4916109;28;20042;-71
2022/05/22 02:01:43;;;;;;;27.25;13.30;;;;;;;-145.76;100.00;65039.31;4948029;28;20038;-71
2022/05/22 02:04:09;;;;;;;22.75;11.85;;;;;;;-145.76;100.00;65039.31;4928038;28;20042;-71
2022/05/22 02:06:34;;;;;;;23.88;13.02;;;;;;;-145.76;100.00;65039.31;4945794;28;20069;-71
2022/05/22 02:09:00;;;;;;;24.48;11.80;;;;;;;-145.76;100.00;65039.31;4912222;28;20049;-71
2022/05/22 02:11:25;;;;;;;25.92;12.38;;;;;;;-145.76;100.00;65039.31;4940304;28;20509;-71
2022/05/22 02:13:51;;;;;;;30.77;14.35;;;;;;;-145.76;100.00;65039.31;4944280;28;20064;-72
2022/05/22 02:16:16;;;;;;;28.65;14.88;;;;;;;-145.76;100.00;65039.31;4943275;28;20072;-71
2022/05/22 02:18:43;;;;;;;23.50;12.57;;;;;;;-145.76;100.00;65039.31;4946046;28;20061;-71
2022/05/22 02:21:09;;;;;;;24.40;13.18;;;;;;;-145.76;100.00;65039.31;4940557;28;20041;-72
2022/05/22 02:23:35;;;;;;;23.67;13.05;;;;;;;-145.76;100.00;65039.31;4942393;28;20789;-71
2022/05/22 02:26:01;;;;;;;26.58;12.70;;;;;;;-145.76;100.00;65039.31;4937848;28;23547;-72
2022/05/22 02:28:27;;;;;;;24.10;13.55;;;;;;;-145.76;100.00;65039.31;4944815;28;20069;-72
2022/05/22 02:30:59;;;;;;;29.23;14.02;;;;;;;-145.76;100.00;65039.31;4930592;28;20030;-72
2022/05/22 02:33:25;;;;;;;28.95;13.90;;;;;;;-145.76;100.00;65039.31;4956467;28;20057;-71
2022/05/22 02:35:51;;;;;;;26.98;12.52;;;;;;;-145.76;100.00;65039.31;4940133;28;20032;-71
2022/05/22 02:38:17;;;;;;;26.52;13.50;;;;;;;-145.76;100.00;65039.31;4930624;28;20057;-72
2022/05/22 02:40:42;;;;;;;28.15;13.80;;;;;;;-145.76;100.00;65039.31;4940136;28;20070;-72
2022/05/22 02:43:08;;;;;;;30.23;14.52;;;;;;;-145.76;100.00;65039.31;4931110;28;20426;-72
2022/05/22 02:45:35;;;;;;;28.98;14.10;;;;;;;-145.76;100.00;65039.31;4939874;28;20121;-71
2022/05/22 02:48:01;;;;;;;29.88;15.63;;;;;;;-145.76;100.00;65039.31;4925707;28;20188;-71
2022/05/22 02:50:28;;;;;;;32.60;15.77;;;;;;;-145.76;100.00;65039.31;4940053;28;20057;-72
2022/05/22 02:52:54;;;;;;;28.00;14.23;;;;;;;-145.76;100.00;65039.31;4930690;28;20038;-71
2022/05/22 02:55:20;;;;;;;35.88;15.70;;;;;;;-145.76;100.00;65039.31;4932699;28;20036;-71
2022/05/22 02:57:46;;;;;;;37.65;15.23;;;;;;;-145.76;100.00;65039.31;4949223;28;20170;-71
2022/05/22 03:00:18;;;;;;;28.67;14.40;;;;;;;-145.76;100.00;65039.31;4930539;28;20045;-71
2022/05/22 03:02:43;;;;;;;30.80;14.10;;;;;;;-145.76;100.00;65039.31;4942994;28;21633;-71
2022/05/22 03:05:09;;;;;;;27.92;14.27;;;;;;;-145.76;100.00;65039.31;4929979;28;20120;-71
2022/05/22 03:07:38;;;;;;;28.25;13.25;;;;;;;-145.76;100.00;65039.31;4943537;28;20649;-71
2022/05/22 03:10:11;;;;;;;31.23;15.23;;;;;;;-145.76;100.00;65039.31;4931053;28;20042;-71
2022/05/22 03:12:36;;;;;;;38.45;15.23;;;;;;;-145.76;100.00;65039.31;4944702;28;20107;-71
2022/05/22 03:15:04;;;;;;;24.58;15.52;;;;;;;-145.76;100.00;65039.31;4929095;28;22462;-70
2022/05/22 03:17:30;;;;;;;28.25;14.57;;;;;;;-145.76;100.00;65039.31;4942950;28;20082;-70
2022/05/22 03:19:55;;;;;;;31.00;15.05;;;;;;;-145.76;100.00;65039.31;4941912;28;20377;-70
2022/05/22 03:22:21;;;;;;;28.73;14.40;;;;;;;-145.76;100.00;65039.31;4939555;28;20258;-71
2022/05/22 03:24:46;;;;;;;31.00;14.68;;;;;;;-145.76;100.00;65039.31;4942497;28;20607;-71
2022/05/22 03:27:14;;;;;;;30.58;15.32;;;;;;;-145.76;100.00;65039.31;4926595;28;20084;-70
2022/05/22 03:29:40;;;;;;;29.25;15.52;;;;;;;-145.76;100.00;65039.31;4956103;28;20034;-72
2022/05/22 03:32:07;;;;;;;29.85;15.13;;;;;;;-145.76;100.00;65039.31;4928664;28;20044;-73
2022/05/22 03:34:33;;;;;;;29.15;14.90;;;;;;;-145.76;100.00;65039.31;4936897;28;20763;-73
2022/05/22 03:36:59;;;;;;;27.40;15.45;;;;;;;-145.76;100.00;65039.31;4936049;28;20042;-73
2022/05/22 03:39:24;;;;;;;33.55;15.98;;;;;;;-145.76;100.00;65039.31;4943851;28;20084;-73
2022/05/22 03:41:50;;;;;;;31.65;15.65;;;;;;;-145.76;100.00;65039.31;4942869;28;20553;-73
2022/05/22 03:44:15;;;;;;;28.27;16.52;;;;;;;-145.76;100.00;65039.31;4935549;28;20085;-73
2022/05/22 03:46:41;;;;;;;29.13;15.40;;;;;;;-145.76;100.00;65039.31;4942189;28;20037;-73
2022/05/22 03:49:07;;;;;;;26.13;14.85;;;;;;;-145.76;100.00;65039.31;4926804;28;20165;-73
2022/05/22 03:51:34;;;;;;;23.67;14.30;;;;;;;-145.76;100.00;65039.31;4942287;28;20029;-73
2022/05/22 03:53:59;;;;;;;29.95;16.15;;;;;;;-145.76;100.00;65039.31;4935275;28;20199;-73
2022/05/22 03:56:25;;;;;;;27.17;13.07;;;;;;;-145.76;100.00;65039.31;4941871;28;20129;-70
2022/05/22 03:58:50;;;;;;;29.88;15.18;;;;;;;-145.76;100.00;65039.31;4941008;28;20490;-73
2022/05/22 04:01:16;;;;;;;29.10;14.48;;;;;;;-145.76;100.00;65039.31;4913104;28;20986;-72
2022/05/22 04:03:42;;;;;;;27.70;15.30;;;;;;;-145.76;100.00;65039.31;4945663;28;20438;-72
2022/05/22 04:06:09;;;;;;;34.30;14.75;;;;;;;-145.76;100.00;65039.31;4926438;28;20042;-70
2022/05/22 04:08:34;;;;;;;27.42;14.38;;;;;;;-145.76;100.00;65039.31;4945484;28;20052;-72
2022/05/22 04:11:08;;;;;;;29.13;15.52;;;;;;;-145.76;100.00;65039.31;4927615;28;20034;-70
2022/05/22 04:13:34;;;;;;;32.97;15.05;;;;;;;-145.76;100.00;65039.31;4943189;28;20026;-73
2022/05/22 04:15:59;;;;;;;26.25;14.40;;;;;;;-145.76;100.00;65039.31;4927671;28;22624;-71
2022/05/22 04:18:25;;;;;;;26.85;15.82;;;;;;;-145.76;100.00;65039.31;4943272;28;20040;-73
2022/05/22 04:20:51;;;;;;;28.05;17.10;;;;;;;-145.76;100.00;65039.31;4942685;28;22224;-73
2022/05/22 04:26:01;;;;;;;35.17;17.13;;;;;;;-145.76;100.00;65039.31;4944100;28;22723;-70
2022/05/22 04:28:27;;;;;;;35.50;18.25;;;;;;;-145.76;100.00;65039.31;4929788;28;20054;-71
2022/05/22 04:30:53;;;;;;;36.28;20.38;;;;;;;-145.76;100.00;65039.31;4940705;28;20030;-70
2022/05/22 04:33:18;;;;;;;42.40;19.90;;;;;;;-145.76;100.00;65039.31;4929871;28;20044;-70
2022/05/22 04:35:44;;;;;;;47.63;22.00;;;;;;;-145.76;100.00;65039.31;4944142;28;20109;-71
2022/05/22 04:38:11;;;;;;;35.95;19.52;;;;;;;-145.76;100.00;65039.31;4918272;28;20081;-70
2022/05/22 04:40:37;;;;;;;47.60;22.42;;;;;;;-145.76;100.00;65039.31;4934916;28;20129;-69
2022/05/22 04:43:04;;;;;;;42.45;20.25;;;;;;;-145.76;100.00;65039.31;4937175;28;20045;-72
2022/05/22 04:45:30;;;;;;;40.42;20.10;;;;;;;-145.76;100.00;65039.31;4925331;28;20107;-72
2022/05/22 04:47:56;;;;;;;41.97;20.85;;;;;;;-145.76;100.00;65039.31;4936002;28;20168;-69
2022/05/22 04:50:21;;;;;;;45.38;20.50;;;;;;;-145.76;100.00;65039.31;4924454;28;20599;-72
2022/05/22 04:52:47;;;;;;;41.97;20.98;;;;;;;-145.76;100.00;65039.31;4937167;28;21320;-69
2022/05/22 04:55:12;;;;;;;46.45;20.20;;;;;;;-145.76;100.00;65039.31;4920514;28;20065;-72
2022/05/22 04:57:38;;;;;;;42.30;20.95;;;;;;;-145.76;100.00;65039.31;4936095;28;21092;-72
2022/05/22 05:00:05;;;;;;;43.53;20.17;;;;;;;-145.76;100.00;65039.31;4920302;28;20338;-72
2022/05/22 05:02:30;;;;;;;40.67;18.63;;;;;;;-145.76;100.00;65039.31;4935279;28;20714;-71
2022/05/22 05:04:57;;;;;;;40.70;19.58;;;;;;;-145.76;100.00;65039.31;4938156;28;20038;-72
2022/05/22 05:07:23;;;;;;;43.15;20.17;;;;;;;-145.76;100.00;65039.31;4918662;28;20176;-72
2022/05/22 05:09:49;;;;;;;39.42;19.30;;;;;;;-145.76;100.00;65039.31;4952602;28;20469;-72
2022/05/22 05:12:15;;;;;;;38.28;18.60;;;;;;;-145.76;100.00;65039.31;4921508;28;20034;-72
2022/05/22 05:14:41;;;;;;;35.72;18.30;;;;;;;-145.76;100.00;65039.31;4937441;28;20154;-72
2022/05/22 05:17:08;;;;;;;33.65;17.83;;;;;;;-145.76;100.00;65039.31;4921385;28;20072;-72
2022/05/22 05:19:33;;;;;;;37.15;18.35;;;;;;;-145.76;100.00;65039.31;4936727;28;20044;-70
2022/05/22 05:21:59;;;;;;;29.00;14.15;;;;;;;-145.76;100.00;65039.31;4932003;28;20038;-70
2022/05/22 05:24:24;;;;;;;24.85;10.32;;;;;;;-145.76;100.00;65039.31;4927912;28;20041;-70
2022/05/22 05:26:51;;;;;;;24.75;9.38;;;;;;;-145.76;100.00;65039.31;4933445;28;20042;-70
2022/05/22 05:29:16;;;;;;;23.42;7.93;;;;;;;-145.76;100.00;65039.31;4901995;28;20049;-71
2022/05/22 05:31:42;;;;;;;13.20;5.88;;;;;;;-145.76;100.00;65039.31;4938238;28;20033;-71
2022/05/22 05:34:10;;;;;;;14.85;5.60;;;;;;;-145.76;100.00;65039.31;4921986;28;20228;-71
2022/05/22 05:36:36;;;;;;;13.27;5.70;;;;;;;-145.76;100.00;65039.31;4936961;28;20741;-70
2022/05/22 05:39:02;;;;;;;17.08;5.68;;;;;;;-145.76;100.00;65039.31;4920241;28;20422;-71
2022/05/22 05:41:28;;;;;;;16.10;5.88;;;;;;;-145.76;100.00;65039.31;4937957;28;24499;-70
2022/05/22 05:43:53;;;;;;;17.52;5.57;;;;;;;-145.76;100.00;65039.31;4933779;28;20065;-71
2022/05/22 05:46:19;;;;;;;14.20;6.57;;;;;;;-145.76;100.00;65039.31;4923041;28;20113;-70
2022/05/22 05:48:44;;;;;;;16.15;5.43;;;;;;;-145.76;100.00;65039.31;4951695;28;20054;-71
2022/05/22 05:51:13;;;;;;;14.65;5.85;;;;;;;-145.76;100.00;65039.31;4919870;28;20042;-71
2022/05/22 05:53:39;;;;;;;16.67;5.93;;;;;;;-145.76;100.00;65039.31;4954403;28;23399;-71
2022/05/22 05:56:05;;;;;;;15.52;5.85;;;;;;;-145.76;100.00;65039.31;4929038;28;20046;-71
2022/05/22 05:58:31;;;;;;;21.40;6.18;;;;;;;-145.76;100.00;65039.31;4944082;28;20417;-71
2022/05/22 06:00:57;;;;;;;17.48;5.30;;;;;;;-145.76;100.00;65039.31;4937818;28;20053;-71
2022/05/22 06:03:22;;;;;;;11.27;5.60;;;;;;;-145.76;100.00;65039.31;4944781;28;20042;-71
2022/05/22 06:05:48;;;;;;;20.63;5.63;;;;;;;-145.76;100.00;65039.31;4929110;28;20053;-71
2022/05/22 06:08:13;;;;;;;16.95;5.90;;;;;;;-145.76;100.00;65039.31;4927476;28;20052;-70
2022/05/22 06:10:39;;;;;;;15.40;5.72;;;;;;;-145.76;100.00;65039.31;4944238;28;20034;-70
2022/05/22 06:13:05;;;;;;;15.32;6.30;;;;;;;-145.76;100.00;65039.31;4924547;28;20057;-70
2022/05/22 06:15:30;;;;;;;25.10;7.15;;;;;;;-145.76;100.00;65039.31;4940386;28;20045;-70
2022/05/22 06:17:56;;;;;;;18.13;5.70;;;;;;;-145.76;100.00;65039.31;4926429;28;20045;-70
2022/05/22 06:20:22;;;;;;;15.80;6.22;;;;;;;-145.76;100.00;65039.31;4943834;28;20034;-70
2022/05/22 06:22:48;;;;;;;19.25;6.22;;;;;;;-145.76;100.00;65039.31;4937763;28;20129;-71
2022/05/22 06:25:15;;;;;;;17.77;6.90;;;;;;;-145.76;100.00;65039.31;4932596;28;20567;-70
2022/05/22 06:27:43;;;;;;;14.50;5.97;;;;;;;-145.76;100.00;65039.31;4943199;28;20110;-70
2022/05/22 06:30:12;;;;;;;15.80;6.53;;;;;;;-145.76;100.00;65039.31;4925329;28;20037;-70
2022/05/22 06:32:39;;;;;;;21.65;7.72;;;;;;;-145.76;100.00;65039.31;4942164;28;20134;-70
2022/05/22 06:35:05;;;;;;;21.02;6.85;;;;;;;-145.76;100.00;65039.31;4924945;28;20046;-70
2022/05/22 06:37:31;;;;;;;21.85;8.05;;;;;;;-145.76;100.00;65039.31;4943800;28;20166;-71
2022/05/22 06:39:56;;;;;;;18.58;6.80;;;;;;;-145.76;100.00;65039.31;4927837;28;20047;-71
2022/05/22 06:42:25;;;;;;;12.80;5.88;;;;;;;-145.76;100.00;65039.31;4943450;28;20124;-70
2022/05/22 06:44:55;;;;;;;23.00;7.35;;;;;;;-145.76;100.00;65039.31;4946534;28;21722;-71
2022/05/22 06:47:21;;;;;;;21.08;6.25;;;;;;;-145.76;100.00;65039.31;4934914;28;20143;-70
2022/05/22 06:49:47;;;;;;;22.38;6.80;;;;;;;-145.76;100.00;65039.31;4946309;28;21015;-70
2022/05/22 06:52:13;;;;;;;20.30;5.88;;;;;;;-145.76;100.00;65039.31;4944597;28;20049;-71
2022/05/22 06:54:38;;;;;;;19.70;6.18;;;;;;;-145.76;100.00;65039.31;4947011;28;20555;-70
2022/05/22 06:57:04;;;;;;;17.63;6.57;;;;;;;-145.76;100.00;65039.31;4930538;28;20073;-71
2022/05/22 06:59:30;;;;;;;13.52;4.55;;;;;;;-145.76;100.00;65039.31;4944639;28;20037;-71
2022/05/22 07:01:57;;;;;;;14.93;4.57;;;;;;;-145.76;100.00;65039.31;4926452;28;20125;-70
2022/05/22 07:04:22;;;;;;;20.08;5.50;;;;;;;-145.76;100.00;65039.31;4945721;28;20042;-71
2022/05/22 07:06:48;;;;;;;20.90;6.05;;;;;;;-145.76;100.00;65039.31;4946787;28;20079;-71
2022/05/22 07:09:17;;;;;;;19.67;6.45;;;;;;;-145.76;100.00;65039.31;4932453;28;20042;-71
2022/05/22 07:11:43;;;;;;;16.15;5.10;;;;;;;-145.76;100.00;65039.31;4945908;28;20105;-71
2022/05/22 07:14:10;;;;;;;18.10;5.22;;;;;;;-145.76;100.00;65039.31;4930278;28;22807;-71
2022/05/22 07:16:37;;;;;;;19.05;5.45;;;;;;;-145.76;100.00;65039.31;4941840;28;20068;-71
2022/05/22 07:19:04;;;;;;;16.70;5.30;;;;;;;-145.76;100.00;65039.31;4925768;28;20041;-71
2022/05/22 07:21:30;;;;;;;16.83;4.05;;;;;;;-145.76;100.00;65039.31;4942292;28;20037;-70
2022/05/22 07:23:55;;;;;;;13.63;4.05;;;;;;;-145.76;100.00;65039.31;4930809;28;20037;-70
2022/05/22 07:26:21;;;;;;;15.50;4.13;;;;;;;-145.76;100.00;65039.31;4943402;28;20044;-71
2022/05/22 07:28:48;;;;;;;13.77;4.07;;;;;;;-145.76;100.00;65039.31;4927554;28;20384;-71
2022/05/22 07:31:22;;;;;;;16.83;4.53;;;;;;;-145.76;100.00;65039.31;4931823;28;20045;-71
2022/05/22 07:33:48;;;;;;;12.15;3.63;;;;;;;-145.76;100.00;65039.31;4944908;28;20063;-70
2022/05/22 07:36:14;;;;;;;17.35;4.78;;;;;;;-145.76;100.00;65039.31;4925666;28;20084;-71
2022/05/22 07:38:40;;;;;;;13.73;4.05;;;;;;;-145.76;100.00;65039.31;4944930;28;20034;-71
2022/05/22 07:41:05;;;;;;;14.43;3.47;;;;;;;-145.76;100.00;65039.31;4930190;28;20513;-71
2022/05/22 07:43:31;;;;;;;14.43;3.78;;;;;;;-145.76;100.00;65039.31;4945634;28;20121;-71
2022/05/22 07:45:56;;;;;;;10.85;2.75;;;;;;;-145.76;100.00;65039.31;4930598;28;20316;-71
2022/05/22 07:48:22;;;;;;;14.35;3.35;;;;;;;-145.76;100.00;65039.31;4942588;28;20139;-71
2022/05/22 07:50:54;;;;;;;12.27;3.63;;;;;;;-145.76;100.00;65039.31;4944377;28;20096;-69
2022/05/22 07:53:20;;;;;;;17.70;4.40;;;;;;;-145.76;100.00;65039.31;4923000;28;20702;-69
2022/05/22 07:55:45;;;;;;;14.25;3.10;;;;;;;-145.76;100.00;65039.31;4944121;28;20160;-68
2022/05/22 07:58:12;;;;;;;10.85;3.05;;;;;;;-145.76;100.00;65039.31;4928129;28;20049;-68
2022/05/22 08:00:37;;;;;;;12.73;3.65;;;;;;;-145.76;100.00;65039.31;4944474;28;20046;-68
2022/05/22 08:03:21;;;;;;;15.13;3.92;;;;;;;-145.76;100.00;65039.31;4929075;28;20046;-68
2022/05/22 08:05:47;;;;;;;10.43;3.20;;;;;;;-145.76;100.00;65039.31;4945310;28;20052;-68
2022/05/22 08:08:13;;;;;;;16.17;3.65;;;;;;;-145.76;100.00;65039.31;4931056;28;20050;-68
2022/05/22 08:10:41;;;;;;;12.45;3.30;;;;;;;-145.76;100.00;65039.31;4945866;28;20095;-68
2022/05/22 08:13:07;;;;;;;11.57;4.05;;;;;;;-145.76;100.00;65039.31;4945235;28;20443;-68
2022/05/22 08:15:34;;;;;;;11.60;3.40;;;;;;;-145.76;100.00;65039.31;4943310;28;20036;-68
2022/05/22 08:18:00;;;;;;;15.93;4.32;;;;;;;-145.76;100.00;65039.31;4944303;28;20046;-68
2022/05/22 08:20:28;;;;;;;13.55;3.58;;;;;;;-145.76;100.00;65039.31;4938831;28;20056;-68
2022/05/22 08:23:00;;;;;;;13.82;3.00;;;;;;;-145.76;100.00;65039.31;4943360;28;22099;-68
2022/05/22 08:25:27;;;;;;;14.02;3.80;;;;;;;-145.76;100.00;65039.31;4929426;28;20042;-68
2022/05/22 08:27:53;;;;;;;15.60;4.15;;;;;;;-145.76;100.00;65039.31;4944687;28;20049;-69
2022/05/22 08:30:20;;;;;;;14.60;3.90;;;;;;;-145.76;100.00;65039.31;4927976;28;20374;-69
2022/05/22 08:32:47;;;;;;;13.93;3.90;;;;;;;-145.76;100.00;65039.31;4943278;28;20037;-69
2022/05/22 08:35:15;;;;;;;11.05;3.55;;;;;;;-145.76;100.00;65039.31;4945059;28;20072;-69
2022/05/22 08:37:42;;;;;;;15.10;3.63;;;;;;;-145.76;100.00;65039.31;4921323;28;22509;-69
2022/05/22 08:40:10;;;;;;;10.25;3.20;;;;;;;-145.76;100.00;65039.31;4955030;28;20072;-69
2022/05/22 08:42:45;;;;;;;15.43;3.42;;;;;;;-145.76;100.00;65039.31;4926068;28;20049;-69
2022/05/22 08:45:16;;;;;;;11.10;3.40;;;;;;;-145.76;100.00;65039.31;4939886;28;20041;-69
2022/05/22 08:48:03;;;;;;;13.18;3.10;;;;;;;-145.76;100.00;65039.31;4926578;28;20764;-69
2022/05/22 08:50:29;;;;;;;11.88;3.90;;;;;;;-145.76;100.00;65039.31;4952060;28;20354;-69
2022/05/22 08:53:08;;;;;;;13.80;3.75;;;;;;;-145.76;100.00;65039.31;4922246;28;20125;-70
2022/05/22 08:58:56;;;;;;;15.43;4.30;;;;;;;-145.76;100.00;65039.31;4927739;28;20050;-69
2022/05/22 09:01:43;;;;;;;11.48;3.72;;;;;;;-145.76;100.00;65039.31;4941760;28;20026;-69
2022/05/22 09:04:21;;;;;;;18.45;4.10;;;;;;;-145.76;100.00;65039.31;4926069;28;20041;-69
2022/05/22 09:06:53;;;;;;;15.80;4.60;;;;;;;-145.76;100.00;65039.31;4923025;28;20132;-69
2022/05/22 09:09:18;;;;;;;13.38;3.22;;;;;;;-145.76;100.00;65039.31;4921085;28;21845;-69
2022/05/22 09:11:51;;;;;;;11.65;2.97;;;;;;;-145.76;100.00;65039.31;4936929;28;21026;-69
2022/05/22 09:14:26;;;;;;;15.88;4.55;;;;;;;-145.76;100.00;65039.31;4940373;28;20040;-69
2022/05/22 09:17:14;;;;;;;12.20;3.35;;;;;;;-145.76;100.00;65039.31;4923192;28;20092;-69
2022/05/22 09:19:47;;;;;;;10.93;2.80;;;;;;;-145.76;100.00;65039.31;4933983;28;20108;-69
2022/05/22 09:22:16;;;;;;;;;;;;;;;-145.76;100.00;65039.31;4923175;28;20072;-69
2022/05/22 09:24:55;;;;;;;11.95;2.80;;;;;;;-145.76;100.00;65039.31;4938081;28;23487;-69
2022/05/22 09:27:31;;;;;;;11.75;2.85;;;;;;;-145.76;100.00;65039.31;4919247;28;20046;-70
2022/05/22 09:30:02;;;;;;;12.50;2.75;;;;;;;-145.76;100.00;65039.31;4933904;28;20108;-69
2022/05/22 09:33:02;;;;;;;13.23;3.05;;;;;;;-145.76;100.00;65039.31;4921415;28;20566;-69
2022/05/22 09:35:49;;;;;;;10.10;2.55;;;;;;;-145.76;100.00;65039.31;4934398;28;25262;-69
2022/05/22 09:38:46;;;;;;;12.35;2.60;;;;;;;-145.76;100.00;65039.31;4921693;28;20046;-69
2022/05/22 09:41:14;;;;;;;9.10;2.63;;;;;;;-145.76;100.00;65039.31;4938400;28;20092;-70
2022/05/22 09:44:13;;;;;;;11.32;3.63;;;;;;;-145.76;100.00;65039.31;4929333;28;20156;-69
2022/05/22 09:47:14;;;;;;;12.20;3.10;;;;;;;-145.76;100.00;65039.31;4941146;28;20038;-69
2022/05/22 09:50:00;;;;;;;11.15;2.50;;;;;;;-145.76;100.00;65039.31;4915789;28;20074;-71
2022/05/22 09:52:55;;;;;;;11.10;2.92;;;;;;;-145.76;100.00;65039.31;4943382;28;20038;-70
2022/05/22 09:55:44;;;;;;;11.57;2.80;;;;;;;-145.76;100.00;65039.31;4923586;28;20104;-70
2022/05/22 09:58:28;;;;;;;7.57;2.00;;;;;;;-145.76;100.00;65039.31;4940364;28;20145;-69
2022/05/22 10:01:07;;;;;;;9.98;1.88;;;;;;;-145.76;100.00;65039.31;4927326;28;20616;-70
2022/05/22 10:03:41;;;;;;;7.55;1.50;;;;;;;-145.76;100.00;65039.31;4941270;28;20033;-70
2022/05/22 10:06:07;;;;;;;10.57;2.47;;;;;;;-145.76;100.00;65039.31;4924775;28;20468;-70
2022/05/22 10:09:09;;;;;;;6.68;1.92;;;;;;;-145.76;100.00;65039.31;4942173;28;20050;-70
2022/05/22 10:11:57;;;;;;;13.18;2.53;;;;;;;-145.76;100.00;65039.31;4921475;28;20049;-70
2022/05/22 10:14:47;;;;;;;8.68;2.30;;;;;;;-145.76;100.00;65039.31;4939497;28;20502;-70
2022/05/22 10:17:45;;;;;;;11.48;3.05;;;;;;;-145.76;100.00;65039.31;4930164;28;20052;-70
2022/05/22 10:20:19;;;;;;;7.50;1.90;;;;;;;-145.76;100.00;65039.31;4937665;28;20069;-70
2022/05/22 10:23:18;;;;;;;4.40;1.60;;;;;;;-145.76;100.00;65039.31;4925821;28;20164;-69
2022/05/22 10:25:50;;;;;;;8.02;1.73;;;;;;;-145.76;100.00;65039.31;4946744;28;20042;-71
2022/05/22 10:28:22;;;;;;;7.47;1.38;;;;;;;-145.76;100.00;65039.31;4926610;28;20049;-71
2022/05/22 10:30:58;;;;;;;8.23;1.87;;;;;;;-145.76;100.00;65039.31;4947235;28;20044;-70
2022/05/22 10:33:44;;;;;;;8.38;2.40;;;;;;;-145.76;100.00;65039.31;4929735;28;20368;-70
2022/05/22 10:36:20;;;;;;;7.25;2.03;;;;;;;-145.76;100.00;65039.31;4941783;28;20025;-70
2022/05/22 10:38:49;;;;;;;10.88;2.55;;;;;;;-145.76;100.00;65039.31;4927206;28;20046;-70
2022/05/22 10:44:06;;;;;;;8.88;2.20;;;;;;;-145.76;100.00;65039.31;4931089;28;20064;-71
2022/05/22 10:46:31;;;;;;;8.20;1.60;;;;;;;-145.76;100.00;65039.31;4944680;28;20026;-71
2022/05/22 10:48:57;;;;;;;6.35;1.88;;;;;;;-145.76;100.00;65039.31;4933234;28;20700;-70
2022/05/22 10:51:26;;;;;;;5.53;1.67;;;;;;;-145.76;100.00;65039.31;4946715;28;20087;-70
2022/05/22 10:53:57;;;;;;;7.65;1.63;;;;;;;-145.76;100.00;65039.31;4962048;28;20123;-72
2022/05/22 10:56:31;;;;;;;5.35;1.40;;;;;;;-145.76;100.00;65039.31;4928079;28;20049;-71
2022/05/22 10:59:00;;;;;;;9.60;2.50;;;;;;;-145.76;100.00;65039.31;4947728;28;20052;-71
2022/05/22 11:01:29;;;;;;;7.22;1.80;;;;;;;-145.76;100.00;65039.31;4929823;28;20081;-70
2022/05/22 11:04:07;;;;;;;5.72;1.73;;;;;;;-145.76;100.00;65039.31;4945063;28;20092;-71
2022/05/22 11:06:36;;;;;;;5.47;1.75;;;;;;;-145.76;100.00;65039.31;4931058;28;20049;-71
2022/05/22 11:09:03;;;;;;;8.60;1.92;;;;;;;-145.76;100.00;65039.31;4942330;28;20501;-71
2022/05/22 11:11:33;;;;;;;10.55;2.05;;;;;;;-145.76;100.00;65039.31;4930967;28;23947;-70
2022/05/22 11:14:12;;;;;;;7.53;2.13;;;;;;;-145.76;100.00;65039.31;4943888;28;20038;-71
2022/05/22 11:16:39;;;;;;;7.45;2.67;;;;;;;-145.76;100.00;65039.31;4926317;28;20044;-71
2022/05/22 11:19:09;;;;;;;10.05;2.05;;;;;;;-145.76;100.00;65039.31;4942780;28;20331;-71